createdAt,value
2018-06-27T00:00:06.600Z,4.93
2018-06-27T00:02:35.429Z,4.40
2018-06-27T00:05:04.269Z,4.13
2018-06-27T00:07:33.117Z,4.80
2018-06-27T00:10:01.954Z,4.10
2018-06-27T00:12:30.783Z,4.50
2018-06-27T00:14:59.625Z,4.67
2018-06-27T00:17:28.460Z,5.00
2018-06-27T00:19:57.298Z,4.30
2018-06-27T00:22:26.137Z,4.40
2018-06-27T00:24:54.988Z,5.00
2018-06-27T00:27:23.832Z,4.30
2018-06-27T00:29:52.674Z,4.17
2018-06-27T00:32:21.527Z,3.80
2018-06-27T00:34:50.375Z,4.65
2018-06-27T00:37:19.211Z,3.90
2018-06-27T00:39:48.131Z,4.67
2018-06-27T00:42:16.979Z,3.67
2018-06-27T00:44:45.810Z,4.55
2018-06-27T00:47:14.650Z,3.97
2018-06-27T00:49:43.547Z,4.60
2018-06-27T00:52:13.074Z,4.90
2018-06-27T00:54:41.918Z,4.90
2018-06-27T00:57:10.757Z,4.23
2018-06-27T00:59:39.592Z,4.40
2018-06-27T01:02:08.428Z,4.73
2018-06-27T01:04:37.266Z,4.77
2018-06-27T01:07:06.114Z,4.57
2018-06-27T01:09:34.949Z,4.77
2018-06-27T01:12:03.791Z,4.60
2018-06-27T01:14:32.626Z,4.67
2018-06-27T01:17:01.466Z,4.07
2018-06-27T01:19:30.304Z,4.17
2018-06-27T01:21:59.148Z,4.17
2018-06-27T01:24:28.574Z,3.63
2018-06-27T01:26:58.159Z,4.22
2018-06-27T01:29:27.003Z,3.73
2018-06-27T01:31:55.827Z,3.47
2018-06-27T01:34:25.251Z,4.07
2018-06-27T01:36:54.109Z,4.10
2018-06-27T01:39:22.949Z,3.60
2018-06-27T01:41:51.789Z,3.90
2018-06-27T01:44:20.631Z,3.93
2018-06-27T01:46:49.475Z,4.37
2018-06-27T01:49:18.310Z,4.00
2018-06-27T01:51:47.153Z,3.80
2018-06-27T01:54:15.986Z,3.80
2018-06-27T01:56:44.823Z,4.03
2018-06-27T01:59:13.656Z,4.10
2018-06-27T02:01:43.241Z,3.80
2018-06-27T02:04:12.077Z,3.80
2018-06-27T02:06:40.919Z,3.90
2018-06-27T02:09:09.761Z,4.27
2018-06-27T02:11:38.590Z,4.33
2018-06-27T02:14:07.424Z,4.00
2018-06-27T02:16:36.262Z,4.37
2018-06-27T02:19:05.103Z,4.23
2018-06-27T02:21:33.931Z,4.17
2018-06-27T02:24:02.776Z,4.30
2018-06-27T02:26:31.618Z,4.75
2018-06-27T02:29:00.459Z,4.90
2018-06-27T02:31:29.294Z,4.97
2018-06-27T02:33:58.125Z,4.50
2018-06-27T02:36:26.973Z,4.10
2018-06-27T02:38:55.797Z,4.27
2018-06-27T02:41:25.368Z,4.30
2018-06-27T02:43:54.202Z,4.30
2018-06-27T02:46:23.043Z,4.33
2018-06-27T02:48:51.869Z,3.93
2018-06-27T02:51:21.453Z,4.27
2018-06-27T02:53:50.289Z,5.03
2018-06-27T02:56:19.139Z,4.37
2018-06-27T02:58:47.978Z,4.47
2018-06-27T03:01:16.831Z,4.93
2018-06-27T03:03:45.668Z,4.23
2018-06-27T03:06:14.521Z,3.90
2018-06-27T03:08:43.363Z,4.03
2018-06-27T03:11:12.207Z,4.73
2018-06-27T03:13:41.040Z,4.50
2018-06-27T03:16:09.873Z,4.50
2018-06-27T03:18:38.721Z,5.13
2018-06-27T03:21:07.553Z,4.90
2018-06-27T03:23:36.412Z,4.67
2018-06-27T03:26:05.254Z,4.23
2018-06-27T03:28:34.841Z,4.43
2018-06-27T03:31:03.710Z,4.33
2018-06-27T03:33:33.290Z,4.72
2018-06-27T03:36:02.122Z,4.53
2018-06-27T03:38:30.964Z,4.00
2018-06-27T03:40:59.807Z,4.33
2018-06-27T03:43:28.649Z,4.77
2018-06-27T03:45:57.495Z,4.53
2018-06-27T03:48:26.911Z,4.20
2018-06-27T03:50:55.752Z,3.73
2018-06-27T03:53:24.577Z,4.80
2018-06-27T03:55:54.151Z,4.60
2018-06-27T03:58:22.998Z,4.80
2018-06-27T04:00:51.842Z,4.77
2018-06-27T04:03:20.685Z,5.37
2018-06-27T04:05:50.272Z,5.30
2018-06-27T04:08:19.121Z,5.23
2018-06-27T04:10:47.943Z,4.27
2018-06-27T04:13:16.854Z,4.43
2018-06-27T04:15:45.689Z,5.40
2018-06-27T04:18:14.476Z,4.40
2018-06-27T04:20:43.313Z,5.70
2018-06-27T04:23:12.165Z,4.37
2018-06-27T04:25:41.005Z,6.20
2018-06-27T04:28:09.842Z,4.90
2018-06-27T04:30:38.679Z,5.50
2018-06-27T04:33:08.266Z,5.90
2018-06-27T04:35:37.199Z,5.68
2018-06-27T04:38:06.011Z,5.80
2018-06-27T04:40:34.844Z,5.70
2018-06-27T04:43:04.451Z,5.20
2018-06-27T04:45:33.246Z,5.23
2018-06-27T04:48:02.091Z,6.23
2018-06-27T04:50:30.935Z,5.70
2018-06-27T04:52:59.785Z,5.43
2018-06-27T04:55:28.624Z,5.62
2018-06-27T04:57:57.479Z,5.95
2018-06-27T05:00:26.317Z,5.63
2018-06-27T05:02:55.165Z,4.93
2018-06-27T05:05:24.019Z,5.23
2018-06-27T05:07:52.853Z,4.93
2018-06-27T05:10:21.714Z,4.90
2018-06-27T05:12:50.549Z,6.00
2018-06-27T05:15:20.132Z,5.30
2018-06-27T05:17:48.975Z,5.93
2018-06-27T05:20:17.816Z,5.47
2018-06-27T05:22:46.671Z,6.53
2018-06-27T05:25:15.502Z,7.18
2018-06-27T05:27:44.398Z,7.20
2018-06-27T05:30:13.187Z,7.70
2018-06-27T05:32:42.036Z,7.60
2018-06-27T05:35:10.911Z,7.97
2018-06-27T05:37:39.718Z,7.50
2018-06-27T05:40:08.563Z,8.17
2018-06-27T05:42:37.410Z,7.60
2018-06-27T05:45:06.239Z,8.60
2018-06-27T05:47:35.075Z,7.87
2018-06-27T05:50:03.914Z,7.30
2018-06-27T05:52:33.492Z,8.60
2018-06-27T05:55:02.335Z,8.57
2018-06-27T05:57:31.908Z,10.70
2018-06-27T06:00:00.768Z,11.20
2018-06-27T06:02:29.610Z,9.90
2018-06-27T06:04:58.451Z,12.00
2018-06-27T06:07:27.401Z,13.13
2018-06-27T06:09:56.902Z,11.30
2018-06-27T06:12:25.755Z,11.12
2018-06-27T06:14:54.591Z,11.32
2018-06-27T06:17:24.190Z,9.43
2018-06-27T06:19:53.867Z,9.33
2018-06-27T06:22:22.624Z,10.38
2018-06-27T06:24:51.468Z,9.13
2018-06-27T06:27:20.314Z,8.93
2018-06-27T06:29:49.153Z,11.27
2018-06-27T06:32:18.762Z,9.33
2018-06-27T06:34:47.567Z,9.03
2018-06-27T06:37:16.412Z,9.73
2018-06-27T06:39:45.255Z,8.93
2018-06-27T06:42:14.107Z,9.27
2018-06-27T06:44:42.959Z,8.77
2018-06-27T06:47:11.804Z,9.20
2018-06-27T06:49:40.644Z,8.03
2018-06-27T06:52:09.513Z,7.90
2018-06-27T06:54:38.346Z,7.73
2018-06-27T06:57:07.197Z,7.57
2018-06-27T06:59:36.049Z,8.00
2018-06-27T07:02:04.914Z,8.07
2018-06-27T07:04:33.746Z,7.47
2018-06-27T07:07:03.334Z,7.47
2018-06-27T07:09:32.186Z,7.03
2018-06-27T07:12:01.045Z,7.57
2018-06-27T07:14:29.878Z,6.77
2018-06-27T07:16:58.713Z,6.50
2018-06-27T07:19:27.554Z,6.57
2018-06-27T07:21:56.395Z,6.70
2018-06-27T07:24:25.255Z,6.70
2018-06-27T07:26:54.078Z,6.70
2018-06-27T07:29:22.932Z,7.27
2018-06-27T07:31:51.780Z,7.13
2018-06-27T07:34:20.618Z,7.23
2018-06-27T07:36:50.213Z,6.50
2018-06-27T07:39:19.060Z,7.28
2018-06-27T07:41:47.948Z,6.50
2018-06-27T07:44:16.756Z,6.70
2018-06-27T07:46:45.598Z,6.10
2018-06-27T07:49:14.440Z,6.33
2018-06-27T07:51:43.284Z,6.60
2018-06-27T07:54:12.120Z,5.73
2018-06-27T07:56:40.970Z,6.10
2018-06-27T07:59:09.811Z,6.70
2018-06-27T08:01:38.665Z,7.50
2018-06-27T08:04:07.514Z,7.00
2018-06-27T08:06:37.096Z,6.10
2018-06-27T08:09:05.938Z,7.30
2018-06-27T08:11:34.783Z,7.47
2018-06-27T08:14:04.374Z,6.73
2018-06-27T08:16:33.230Z,7.60
2018-06-27T08:19:02.066Z,6.28
2018-06-27T08:21:30.917Z,6.22
2018-06-27T08:23:59.757Z,5.97
2018-06-27T08:26:29.507Z,6.75
2018-06-27T08:28:58.210Z,6.87
2018-06-27T08:31:27.048Z,6.60
2018-06-27T08:33:56.626Z,5.97
2018-06-27T08:36:25.460Z,5.62
2018-06-27T08:38:54.303Z,5.03
2018-06-27T08:41:23.154Z,5.50
2018-06-27T08:43:52.003Z,5.50
2018-06-27T08:46:20.840Z,6.50
2018-06-27T08:48:49.691Z,5.90
2018-06-27T08:51:18.533Z,5.35
2018-06-27T08:53:47.372Z,6.05
2018-06-27T08:56:16.215Z,5.80
2018-06-27T08:58:45.134Z,4.95
2018-06-27T09:01:13.903Z,4.82
2018-06-27T09:03:43.480Z,5.35
2018-06-27T09:06:12.321Z,5.37
2018-06-27T09:08:41.175Z,5.47
2018-06-27T09:11:10.014Z,5.55
2018-06-27T09:13:38.857Z,6.00
2018-06-27T09:16:07.690Z,5.70
2018-06-27T09:18:36.543Z,5.60
2018-06-27T09:21:05.361Z,5.40
2018-06-27T09:23:34.943Z,5.12
2018-06-27T09:26:04.375Z,5.40
2018-06-27T09:28:33.219Z,5.43
2018-06-27T09:31:02.059Z,4.85
2018-06-27T09:33:31.646Z,5.22
2018-06-27T09:36:00.488Z,5.03
2018-06-27T09:38:29.325Z,4.70
2018-06-27T09:40:58.918Z,4.62
2018-06-27T09:43:27.783Z,4.40
2018-06-27T09:45:56.623Z,4.20
2018-06-27T09:48:26.215Z,4.43
2018-06-27T09:50:55.066Z,4.00
2018-06-27T09:53:23.938Z,4.28
2018-06-27T09:55:52.777Z,3.70
2018-06-27T09:58:21.633Z,3.75
2018-06-27T10:00:50.478Z,3.40
2018-06-27T10:03:19.905Z,3.30
2018-06-27T10:05:49.499Z,3.45
2018-06-27T10:08:19.086Z,3.30
2018-06-27T10:10:47.922Z,3.03
2018-06-27T10:13:16.787Z,3.20
2018-06-27T10:15:45.633Z,3.72
2018-06-27T10:18:14.474Z,3.03
2018-06-27T10:20:43.336Z,4.03
2018-06-27T10:23:12.190Z,3.80
2018-06-27T10:25:41.030Z,3.08
2018-06-27T10:28:09.858Z,2.83
2018-06-27T10:30:38.770Z,3.40
2018-06-27T10:33:07.560Z,3.10
2018-06-27T10:35:36.403Z,3.53
2018-06-27T10:38:05.983Z,3.10
2018-06-27T10:40:34.828Z,2.90
2018-06-27T10:43:03.673Z,2.35
2018-06-27T10:45:33.108Z,1.85
2018-06-27T10:48:01.950Z,2.23
2018-06-27T10:50:30.789Z,1.80
2018-06-27T10:52:59.632Z,1.98
2018-06-27T10:55:28.476Z,2.00
2018-06-27T10:57:57.316Z,1.60
2018-06-27T11:00:26.166Z,1.35
2018-06-27T11:02:55.003Z,1.37
2018-06-27T11:05:23.859Z,1.33
2018-06-27T11:07:52.692Z,1.30
2018-06-27T11:10:22.271Z,1.58
2018-06-27T11:12:51.115Z,1.25
2018-06-27T11:15:20.180Z,1.33
2018-06-27T11:17:49.028Z,1.30
2018-06-27T11:20:17.889Z,1.60
2018-06-27T11:22:46.729Z,1.25
2018-06-27T11:25:15.578Z,1.67
2018-06-27T11:27:44.414Z,1.65
2018-06-27T11:30:13.261Z,1.58
2018-06-27T11:32:42.119Z,1.50
2018-06-27T11:35:10.955Z,1.80
2018-06-27T11:37:39.794Z,1.20
2018-06-27T11:40:09.381Z,1.50
2018-06-27T11:42:38.956Z,1.55
2018-06-27T11:45:07.799Z,1.70
2018-06-27T11:47:36.637Z,1.67
2018-06-27T11:50:05.812Z,1.37
2018-06-27T11:52:34.659Z,1.50
2018-06-27T11:55:03.507Z,1.80
2018-06-27T11:57:32.353Z,1.80
2018-06-27T12:00:01.197Z,1.80
2018-06-27T12:02:30.037Z,1.70
2018-06-27T12:04:58.886Z,1.77
2018-06-27T12:07:27.732Z,1.77
2018-06-27T12:09:56.569Z,1.67
2018-06-27T12:12:25.418Z,1.42
2018-06-27T12:14:54.255Z,1.50
2018-06-27T12:17:23.105Z,1.40
2018-06-27T12:19:52.056Z,1.70
2018-06-27T12:22:21.642Z,1.52
2018-06-27T12:24:50.486Z,1.70
2018-06-27T12:27:19.331Z,2.12
2018-06-27T12:29:48.167Z,2.30
2018-06-27T12:32:17.012Z,1.85
2018-06-27T12:34:45.858Z,2.17
2018-06-27T12:37:14.695Z,1.80
2018-06-27T12:39:43.542Z,1.98
2018-06-27T12:42:12.385Z,1.83
2018-06-27T12:44:41.226Z,2.10
2018-06-27T12:47:10.067Z,1.80
2018-06-27T12:49:38.906Z,1.75
2018-06-27T12:52:07.747Z,1.80
2018-06-27T12:54:36.581Z,1.90
2018-06-27T12:57:05.458Z,1.90
2018-06-27T12:59:34.293Z,1.98
2018-06-27T13:02:03.146Z,1.90
2018-06-27T13:04:32.722Z,2.08
2018-06-27T13:07:01.595Z,1.70
2018-06-27T13:09:30.399Z,2.10
2018-06-27T13:11:59.252Z,1.73
2018-06-27T13:14:28.079Z,1.73
2018-06-27T13:16:56.911Z,1.60
2018-06-27T13:19:25.768Z,1.33
2018-06-27T13:21:54.605Z,1.40
2018-06-27T13:24:23.463Z,1.50
2018-06-27T13:26:53.041Z,1.45
2018-06-27T13:29:21.904Z,2.20
2018-06-27T13:31:50.731Z,1.70
2018-06-27T13:34:19.572Z,1.60
2018-06-27T13:36:48.422Z,1.40
2018-06-27T13:39:17.991Z,1.50
2018-06-27T13:41:46.829Z,1.45
2018-06-27T13:44:15.688Z,1.50
2018-06-27T13:46:44.524Z,1.62
2018-06-27T13:49:13.385Z,1.50
2018-06-27T13:51:42.223Z,1.30
2018-06-27T13:54:11.065Z,1.40
2018-06-27T13:56:39.910Z,1.48
2018-06-27T13:59:08.751Z,1.20
2018-06-27T14:01:37.612Z,1.20
2018-06-27T14:04:06.458Z,1.40
2018-06-27T14:06:35.296Z,1.30
2018-06-27T14:09:04.142Z,1.50
2018-06-27T14:11:32.981Z,1.35
2018-06-27T14:14:01.828Z,1.40
2018-06-27T14:16:30.675Z,1.20
2018-06-27T14:18:59.543Z,1.30
2018-06-27T14:21:28.374Z,1.42
2018-06-27T14:23:57.276Z,1.50
2018-06-27T14:26:26.076Z,1.90
2018-06-27T14:28:54.905Z,1.30
2018-06-27T14:31:23.749Z,1.20
2018-06-27T14:33:52.584Z,1.50
2018-06-27T14:36:21.440Z,1.50
2018-06-27T14:38:50.270Z,1.40
2018-06-27T14:41:19.853Z,1.30
2018-06-27T14:43:48.734Z,1.50
2018-06-27T14:46:17.531Z,1.40
2018-06-27T14:48:46.378Z,1.20
2018-06-27T14:51:15.217Z,1.20
2018-06-27T14:53:44.063Z,1.60
2018-06-27T14:56:13.007Z,1.60
2018-06-27T14:58:42.488Z,1.65
2018-06-27T15:01:11.327Z,1.62
2018-06-27T15:03:40.169Z,1.45
2018-06-27T15:06:09.021Z,1.30
2018-06-27T15:08:37.858Z,1.60
2018-06-27T15:11:06.691Z,1.65
2018-06-27T15:13:35.537Z,1.45
2018-06-27T15:16:04.390Z,1.58
2018-06-27T15:18:33.221Z,1.70
2018-06-27T15:21:02.061Z,1.70
2018-06-27T15:23:30.968Z,1.52
2018-06-27T15:25:59.820Z,1.50
2018-06-27T15:28:29.635Z,1.52
2018-06-27T15:30:59.216Z,1.52
2018-06-27T15:33:28.062Z,1.40
2018-06-27T15:35:56.891Z,1.60
2018-06-27T15:38:25.773Z,1.42
2018-06-27T15:40:54.620Z,1.48
2018-06-27T15:43:23.477Z,1.50
2018-06-27T15:45:52.328Z,1.35
2018-06-27T15:48:21.184Z,1.40
2018-06-27T15:50:50.039Z,1.60
2018-06-27T15:53:19.471Z,1.50
2018-06-27T15:55:48.307Z,1.30
2018-06-27T15:58:17.149Z,1.52
2018-06-27T16:00:46.024Z,1.50
2018-06-27T16:03:15.604Z,1.48
2018-06-27T16:05:44.447Z,1.40
2018-06-27T16:08:13.285Z,1.60
2018-06-27T16:10:42.126Z,1.70
2018-06-27T16:13:10.964Z,1.40
2018-06-27T16:15:39.815Z,1.75
2018-06-27T16:18:08.657Z,1.70
2018-06-27T16:20:37.489Z,1.60
2018-06-27T16:23:06.348Z,1.62
2018-06-27T16:25:35.935Z,1.48
2018-06-27T16:28:04.799Z,1.77
2018-06-27T16:30:33.629Z,1.70
2018-06-27T16:33:02.507Z,1.65
2018-06-27T16:35:31.358Z,1.60
2018-06-27T16:38:00.217Z,1.60
2018-06-27T16:40:29.793Z,1.65
2018-06-27T16:42:58.686Z,1.60
2018-06-27T16:45:27.466Z,1.60
2018-06-27T16:47:56.334Z,1.60
2018-06-27T16:50:25.188Z,1.80
2018-06-27T16:52:54.015Z,1.50
2018-06-27T16:55:22.849Z,1.40
2018-06-27T16:57:52.422Z,1.60
2018-06-27T17:00:21.262Z,1.60
2018-06-27T17:02:50.115Z,1.45
2018-06-27T17:05:19.700Z,1.20
2018-06-27T17:07:48.549Z,1.23
2018-06-27T17:10:17.407Z,1.40
2018-06-27T17:12:46.270Z,1.20
2018-06-27T17:15:15.102Z,1.20
2018-06-27T17:17:43.937Z,1.20
2018-06-27T17:20:12.787Z,1.10
2018-06-27T17:22:41.635Z,1.20
2018-06-27T17:25:10.750Z,1.30
2018-06-27T17:27:39.542Z,1.20
2018-06-27T17:30:08.397Z,1.10
2018-06-27T17:32:37.226Z,1.27
2018-06-27T17:35:06.069Z,0.90
2018-06-27T17:37:34.911Z,1.25
2018-06-27T17:40:03.755Z,1.00
2018-06-27T17:42:32.586Z,1.20
2018-06-27T17:45:01.429Z,0.90
2018-06-27T17:47:30.266Z,0.95
2018-06-27T17:49:59.106Z,1.20
2018-06-27T17:52:27.951Z,1.20
2018-06-27T17:54:56.791Z,0.95
2018-06-27T17:57:25.631Z,1.00
2018-06-27T17:59:54.484Z,1.10
2018-06-27T18:02:23.375Z,1.25
2018-06-27T18:04:52.178Z,1.10
2018-06-27T18:07:21.762Z,1.05
2018-06-27T18:09:50.602Z,1.20
2018-06-27T18:12:19.444Z,1.27
2018-06-27T18:14:48.330Z,1.20
2018-06-27T18:17:17.195Z,1.60
2018-06-27T18:19:46.723Z,1.30
2018-06-27T18:22:15.572Z,1.50
2018-06-27T18:24:44.426Z,1.30
2018-06-27T18:27:13.318Z,1.35
2018-06-27T18:29:42.164Z,1.40
2018-06-27T18:32:11.004Z,1.50
2018-06-27T18:34:40.584Z,1.37
2018-06-27T18:37:10.708Z,1.50
2018-06-27T18:39:39.446Z,1.60
2018-06-27T18:42:08.283Z,1.83
2018-06-27T18:44:37.123Z,1.70
2018-06-27T18:47:05.966Z,1.65
2018-06-27T18:49:34.809Z,1.50
2018-06-27T18:52:03.693Z,1.50
2018-06-27T18:54:32.511Z,1.87
2018-06-27T18:57:01.347Z,1.62
2018-06-27T18:59:30.224Z,1.70
2018-06-27T19:01:59.072Z,1.52
2018-06-27T19:04:27.897Z,1.77
2018-06-27T19:06:56.748Z,1.87
2018-06-27T19:09:25.583Z,1.73
2018-06-27T19:11:54.435Z,1.60
2018-06-27T19:14:23.295Z,1.73
2018-06-27T19:16:52.144Z,1.75
2018-06-27T19:19:21.742Z,2.00
2018-06-27T19:21:50.581Z,1.85
2018-06-27T19:24:19.434Z,1.80
2018-06-27T19:26:49.013Z,1.80
2018-06-27T19:29:17.863Z,1.90
2018-06-27T19:31:46.697Z,1.77
2018-06-27T19:34:15.547Z,1.85
2018-06-27T19:36:44.384Z,2.10
2018-06-27T19:39:13.227Z,2.08
2018-06-27T19:41:42.079Z,2.08
2018-06-27T19:44:10.928Z,1.75
2018-06-27T19:46:39.772Z,1.60
2018-06-27T19:49:08.617Z,1.95
2018-06-27T19:51:37.512Z,1.65
2018-06-27T19:54:06.289Z,1.70
2018-06-27T19:56:35.133Z,1.80
2018-06-27T19:59:03.982Z,1.90
2018-06-27T20:01:33.576Z,1.90
2018-06-27T20:04:02.418Z,1.70
2018-06-27T20:06:31.998Z,1.55
2018-06-27T20:09:00.841Z,2.10
2018-06-27T20:11:29.683Z,1.77
2018-06-27T20:13:58.575Z,1.90
2018-06-27T20:16:27.429Z,1.80
2018-06-27T20:18:56.223Z,1.85
2018-06-27T20:21:25.131Z,1.70
2018-06-27T20:23:53.945Z,1.80
2018-06-27T20:26:22.787Z,1.83
2018-06-27T20:28:51.628Z,1.75
2018-06-27T20:31:21.224Z,1.95
2018-06-27T20:33:50.050Z,2.05
2018-06-27T20:36:18.912Z,2.03
2018-06-27T20:38:47.774Z,2.10
2018-06-27T20:41:16.616Z,1.70
2018-06-27T20:43:45.450Z,1.70
2018-06-27T20:46:14.887Z,1.87
2018-06-27T20:48:43.739Z,1.77
2018-06-27T20:51:12.572Z,1.80
2018-06-27T20:53:42.146Z,1.80
2018-06-27T20:56:11.073Z,1.85
2018-06-27T20:58:39.855Z,1.67
2018-06-27T21:01:08.707Z,1.70
2018-06-27T21:03:37.550Z,1.90
2018-06-27T21:06:06.457Z,1.70
2018-06-27T21:08:36.044Z,1.50
2018-06-27T21:11:04.903Z,1.70
2018-06-27T21:13:33.758Z,1.80
2018-06-27T21:16:03.341Z,1.52
2018-06-27T21:18:32.847Z,1.80
2018-06-27T21:21:01.616Z,1.80
2018-06-27T21:23:30.442Z,1.70
2018-06-27T21:25:59.323Z,1.67
2018-06-27T21:28:28.125Z,1.70
2018-06-27T21:30:56.977Z,1.50
2018-06-27T21:33:25.812Z,1.40
2018-06-27T21:35:54.662Z,1.45
2018-06-27T21:38:23.502Z,1.37
2018-06-27T21:40:52.338Z,1.45
2018-06-27T21:43:21.185Z,1.60
2018-06-27T21:45:50.054Z,1.40
2018-06-27T21:48:18.902Z,1.45
2018-06-27T21:50:47.814Z,1.60
2018-06-27T21:53:16.590Z,1.40
2018-06-27T21:55:45.474Z,1.27
2018-06-27T21:58:14.304Z,1.50
2018-06-27T22:00:43.885Z,1.25
2018-06-27T22:03:12.736Z,1.40
2018-06-27T22:05:41.567Z,1.33
2018-06-27T22:08:10.397Z,1.30
2018-06-27T22:10:39.244Z,1.52
2018-06-27T22:13:08.074Z,1.35
2018-06-27T22:15:36.915Z,1.30
2018-06-27T22:18:05.746Z,1.30
2018-06-27T22:20:34.593Z,1.40
2018-06-27T22:23:03.434Z,1.30
2018-06-27T22:25:32.261Z,1.30
2018-06-27T22:28:01.105Z,1.45
2018-06-27T22:30:29.954Z,1.55
2018-06-27T22:32:58.790Z,1.55
2018-06-27T22:35:27.626Z,1.50
2018-06-27T22:37:56.458Z,1.55
2018-06-27T22:40:25.322Z,1.48
2018-06-27T22:42:54.180Z,1.58
2018-06-27T22:45:23.044Z,1.50
2018-06-27T22:47:52.597Z,1.52
2018-06-27T22:50:21.460Z,1.60
2018-06-27T22:52:50.314Z,1.45
2018-06-27T22:55:19.179Z,1.30
2018-06-27T22:57:48.032Z,1.30
2018-06-27T23:00:16.865Z,1.70
2018-06-27T23:02:45.716Z,1.50
2018-06-27T23:05:14.563Z,1.50
2018-06-27T23:07:43.414Z,1.50
2018-06-27T23:10:12.256Z,1.50
2018-06-27T23:12:41.094Z,1.30
2018-06-27T23:15:09.956Z,1.70
2018-06-27T23:17:38.788Z,1.55
2018-06-27T23:20:07.643Z,1.50
2018-06-27T23:22:40.046Z,1.67
2018-06-27T23:25:08.885Z,1.50
2018-06-27T23:27:37.718Z,1.60
2018-06-27T23:30:06.565Z,1.70
2018-06-27T23:32:35.395Z,1.60
2018-06-27T23:35:04.828Z,1.65
2018-06-27T23:37:33.674Z,1.67
2018-06-27T23:40:02.503Z,1.60
2018-06-27T23:42:31.339Z,1.60
2018-06-27T23:45:00.179Z,1.60
2018-06-27T23:47:29.767Z,1.42
2018-06-27T23:49:58.622Z,1.70
2018-06-27T23:52:27.462Z,1.60
2018-06-27T23:54:57.035Z,1.98
2018-06-27T23:57:25.886Z,1.45
2018-06-27T23:59:54.749Z,1.58
